Time;durP1;ratioP1;P1;durP2;ratioP2;P2;SDS_P1;SDS_P2;PMS_P1;PMS_P2;Temp;Humidity;BMP_temperature;BMP_pressure;BME280_temperature;BME280_humidity;BME280_pressure;Samples;Min_cycle;Max_cycle;Signal;HPM_P1;HPM_P2
2022/09/02 00:01:43;;;;;;;21.77;13.70;;;;;;;19.70;100.00;94662.25;5080547;28;20040;-66
2022/09/02 00:04:20;;;;;;;16.35;12.98;;;;;;;19.65;100.00;94666.56;5073276;28;20475;-66
2022/09/02 00:06:49;;;;;;;21.70;13.00;;;;;;;19.63;100.00;94663.44;5088933;28;20052;-65
2022/09/02 00:09:18;;;;;;;24.70;12.23;;;;;;;19.53;100.00;94647.78;5090113;28;20050;-66
2022/09/02 00:11:47;;;;;;;21.58;12.52;;;;;;;19.72;100.00;94670.72;5071880;28;20094;-66
2022/09/02 00:14:21;;;;;;;19.25;11.60;;;;;;;19.73;100.00;94682.81;5090652;28;20059;-66
2022/09/02 00:16:51;;;;;;;19.80;12.70;;;;;;;19.76;100.00;94677.00;5089538;28;20047;-67
2022/09/02 00:19:23;;;;;;;23.83;10.80;;;;;;;19.81;100.00;94680.31;5092170;28;20143;-67
2022/09/02 00:21:52;;;;;;;19.58;12.55;;;;;;;19.83;100.00;94680.03;5089373;28;20075;-66
2022/09/02 00:24:20;;;;;;;17.10;12.45;;;;;;;19.83;100.00;94677.41;5084853;28;20592;-66
2022/09/02 00:26:47;;;;;;;16.02;11.85;;;;;;;19.83;100.00;94672.88;5090404;28;20097;-66
2022/09/02 00:29:14;;;;;;;18.48;12.05;;;;;;;19.90;100.00;94680.44;5094436;28;20079;-65
2022/09/02 00:31:43;;;;;;;24.15;13.00;;;;;;;19.84;100.00;94686.88;5089403;28;20124;-65
2022/09/02 00:34:11;;;;;;;17.48;12.82;;;;;;;19.86;100.00;94676.78;5084169;28;20053;-64
2022/09/02 00:36:38;;;;;;;16.48;12.02;;;;;;;19.89;100.00;94676.22;5087516;28;20044;-65
2022/09/02 00:39:07;;;;;;;18.83;11.95;;;;;;;19.88;100.00;94674.66;5087960;28;20129;-65
2022/09/02 00:41:37;;;;;;;16.08;11.93;;;;;;;19.88;100.00;94669.38;5062665;28;20600;-66
2022/09/02 00:44:08;;;;;;;22.30;12.88;;;;;;;19.85;100.00;94680.53;5083135;28;20044;-66
2022/09/02 00:46:35;;;;;;;20.08;11.80;;;;;;;19.85;100.00;94677.88;5064750;28;20059;-66
2022/09/02 00:49:31;;;;;;;17.73;12.00;;;;;;;19.90;100.00;94683.06;5082359;28;20040;-66
2022/09/02 00:52:19;;;;;;;20.80;11.90;;;;;;;19.93;100.00;94687.75;5083527;28;20043;-66
2022/09/02 00:54:51;;;;;;;19.38;11.88;;;;;;;19.91;100.00;94684.63;5083699;28;20060;-67
2022/09/02 00:57:22;;;;;;;15.73;11.80;;;;;;;19.87;100.00;94694.22;5078839;28;20047;-67
2022/09/02 01:00:01;;;;;;;20.40;11.73;;;;;;;19.90;100.00;94688.34;5081585;28;20429;-65
2022/09/02 01:02:30;;;;;;;23.00;11.48;;;;;;;19.91;100.00;94683.84;5081516;28;20032;-66
2022/09/02 01:05:02;;;;;;;16.27;11.68;;;;;;;19.97;100.00;94682.66;5075667;28;20043;-65
2022/09/02 01:07:33;;;;;;;17.90;11.82;;;;;;;20.01;100.00;94681.78;5082536;28;20040;-66
2022/09/02 01:10:02;;;;;;;16.73;10.85;;;;;;;20.04;100.00;94683.06;5083597;28;20036;-66
2022/09/02 01:12:30;;;;;;;17.55;11.27;;;;;;;20.02;100.00;94679.94;5080807;28;20044;-66
2022/09/02 01:14:57;;;;;;;20.55;11.55;;;;;;;19.82;100.00;94670.53;5067311;28;20064;-67
2022/09/02 01:17:25;;;;;;;15.27;11.70;;;;;;;19.78;100.00;94691.47;5071563;28;20508;-66
2022/09/02 01:20:03;;;;;;;23.73;13.48;;;;;;;19.60;100.00;94694.94;5080614;28;20528;-66
2022/09/02 01:22:31;;;;;;;25.15;15.30;;;;;;;19.28;100.00;94678.84;5070255;28;20051;-66
2022/09/02 01:25:06;;;;;;;32.80;17.48;;;;;;;19.20;100.00;94687.41;5085460;28;20036;-65
2022/09/02 01:27:33;;;;;;;33.65;16.65;;;;;;;19.12;100.00;94682.78;5074062;28;20424;-66
2022/09/02 01:30:00;;;;;;;27.17;17.80;;;;;;;19.17;100.00;94685.34;5055757;28;20480;-66
2022/09/02 01:32:29;;;;;;;26.45;17.27;;;;;;;19.23;100.00;94676.28;5054514;28;20192;-65
2022/09/02 01:34:56;;;;;;;28.02;18.23;;;;;;;19.26;100.00;94672.25;5087251;28;20378;-66
2022/09/02 01:37:24;;;;;;;31.42;18.10;;;;;;;19.25;100.00;94666.22;5059679;28;20047;-67
2022/09/02 01:39:51;;;;;;;31.38;19.05;;;;;;;19.35;100.00;94672.38;5078584;28;20058;-66
2022/09/02 01:42:19;;;;;;;28.05;18.60;;;;;;;19.32;100.00;94668.47;5061518;28;20040;-66
2022/09/02 01:44:47;;;;;;;28.00;17.05;;;;;;;19.36;100.00;94674.75;5079691;28;20106;-66
2022/09/02 01:47:32;;;;;;;32.90;17.75;;;;;;;19.34;100.00;94676.09;5063207;28;20044;-66
2022/09/02 01:49:59;;;;;;;26.42;17.58;;;;;;;19.32;100.00;94680.88;5079773;28;20147;-66
2022/09/02 01:52:28;;;;;;;30.90;16.90;;;;;;;19.35;100.00;94677.66;5065014;28;20044;-66
2022/09/02 01:54:56;;;;;;;24.75;15.82;;;;;;;19.37;100.00;94675.53;5078261;28;20055;-65
2022/09/02 01:57:23;;;;;;;27.60;17.23;;;;;;;19.34;100.00;94660.25;5077357;28;20123;-65
2022/09/02 01:59:51;;;;;;;21.23;16.65;;;;;;;19.36;100.00;94673.97;5066220;28;20055;-66
2022/09/02 02:02:19;;;;;;;28.88;17.25;;;;;;;19.37;100.00;94664.97;5062551;28;20051;-65
2022/09/02 02:04:47;;;;;;;29.80;17.80;;;;;;;19.34;100.00;94665.53;5064387;28;20044;-66
2022/09/02 02:07:17;;;;;;;24.00;17.60;;;;;;;19.35;100.00;94662.59;5062501;28;20043;-66
2022/09/02 02:09:44;;;;;;;25.15;18.20;;;;;;;19.37;100.00;94667.59;5062920;28;20055;-66
2022/09/02 02:12:15;;;;;;;28.42;18.92;;;;;;;19.36;100.00;94668.69;5066205;28;20184;-67
2022/09/02 02:14:42;;;;;;;37.22;18.65;;;;;;;19.37;100.00;94664.97;5063623;28;20048;-65
2022/09/02 02:17:09;;;;;;;32.47;18.08;;;;;;;19.36;100.00;94663.41;5071719;28;20287;-66
2022/09/02 02:19:38;;;;;;;28.98;19.10;;;;;;;19.35;100.00;94661.81;5086693;28;20759;-66
2022/09/02 02:22:05;;;;;;;26.27;17.45;;;;;;;19.36;100.00;94660.78;5085960;28;20036;-66
2022/09/02 02:24:32;;;;;;;23.30;16.25;;;;;;;19.32;100.00;94657.13;5051786;28;20047;-66
2022/09/02 02:27:00;;;;;;;26.05;16.60;;;;;;;19.31;100.00;94656.34;5083643;28;20099;-66
2022/09/02 02:29:28;;;;;;;23.48;16.27;;;;;;;19.31;100.00;94666.13;5068501;28;20039;-66
2022/09/02 02:31:55;;;;;;;23.42;15.57;;;;;;;19.26;100.00;94665.13;5086473;28;20039;-66
2022/09/02 02:34:22;;;;;;;24.67;16.60;;;;;;;19.14;100.00;94659.53;5056569;28;20059;-65
2022/09/02 02:36:50;;;;;;;24.95;16.77;;;;;;;19.15;100.00;94674.28;5064104;28;20066;-66
2022/09/02 02:39:19;;;;;;;23.90;17.02;;;;;;;18.99;100.00;94649.22;5072794;28;20040;-65
2022/09/02 02:41:46;;;;;;;27.00;17.63;;;;;;;19.03;100.00;94671.31;5070768;28;20071;-66
2022/09/02 02:44:15;;;;;;;22.75;16.70;;;;;;;19.05;100.00;94674.44;5070579;28;20067;-66
2022/09/02 02:46:42;;;;;;;22.00;14.63;;;;;;;19.07;100.00;94672.31;5086542;28;20812;-67
2022/09/02 02:49:10;;;;;;;23.35;15.80;;;;;;;19.09;100.00;94664.88;5074021;28;20035;-66
2022/09/02 02:51:38;;;;;;;23.48;16.00;;;;;;;19.15;100.00;94673.50;5068559;28;20178;-66
2022/09/02 02:54:05;;;;;;;25.35;15.85;;;;;;;19.18;100.00;94663.16;5071069;28;20040;-66
2022/09/02 02:56:32;;;;;;;19.80;14.18;;;;;;;19.26;100.00;94670.41;5073062;28;20139;-68
2022/09/02 02:59:02;;;;;;;14.70;11.52;;;;;;;19.25;100.00;94674.13;5072611;28;20051;-67
2022/09/02 03:01:31;;;;;;;18.25;12.57;;;;;;;19.22;100.00;94664.13;5054195;28;20157;-68
2022/09/02 03:03:58;;;;;;;15.05;12.05;;;;;;;19.21;100.00;94665.22;5054550;28;20512;-68
2022/09/02 03:06:26;;;;;;;17.92;11.77;;;;;;;19.18;100.00;94655.25;5069953;28;20436;-68
2022/09/02 03:08:56;;;;;;;16.05;12.10;;;;;;;19.17;100.00;94656.28;5089895;28;20040;-67
2022/09/02 03:11:25;;;;;;;16.10;11.70;;;;;;;19.15;100.00;94647.88;5084965;28;20705;-67
2022/09/02 03:13:52;;;;;;;18.00;13.00;;;;;;;19.15;100.00;94642.59;5054400;28;20066;-67
2022/09/02 03:16:19;;;;;;;17.38;12.50;;;;;;;19.13;100.00;94642.13;5088421;28;20055;-68
2022/09/02 03:18:48;;;;;;;19.52;12.75;;;;;;;19.05;100.00;94629.56;5071059;28;20757;-67
2022/09/02 03:21:16;;;;;;;19.52;13.50;;;;;;;19.05;100.00;94642.75;5089814;28;20031;-67
2022/09/02 03:23:45;;;;;;;20.08;13.00;;;;;;;19.00;100.00;94635.72;5071385;28;20059;-68
2022/09/02 03:26:18;;;;;;;17.88;13.25;;;;;;;19.03;100.00;94644.91;5072012;28;20097;-67
2022/09/02 03:28:48;;;;;;;23.13;13.57;;;;;;;18.99;100.00;94655.25;5068987;28;20055;-67
2022/09/02 03:31:20;;;;;;;19.80;12.02;;;;;;;19.07;100.00;94656.47;5062271;28;20047;-68
2022/09/02 03:33:47;;;;;;;16.35;11.82;;;;;;;19.05;100.00;94650.69;5066768;28;20117;-68
2022/09/02 03:36:29;;;;;;;16.60;12.40;;;;;;;19.01;100.00;94647.06;5064596;28;20052;-67
2022/09/02 03:38:57;;;;;;;16.55;12.85;;;;;;;18.98;100.00;94674.00;5063300;28;20044;-66
2022/09/02 03:41:27;;;;;;;17.98;13.40;;;;;;;18.96;100.00;94686.72;5085538;28;20103;-67
2022/09/02 03:43:56;;;;;;;19.15;12.35;;;;;;;18.91;100.00;94696.28;5081254;28;20086;-67
2022/09/02 03:46:24;;;;;;;18.17;13.75;;;;;;;18.94;100.00;94694.91;5067029;28;20055;-67
2022/09/02 03:48:51;;;;;;;17.08;12.48;;;;;;;18.93;100.00;94692.59;5047220;28;20063;-67
2022/09/02 03:51:21;;;;;;;16.95;13.75;;;;;;;18.95;100.00;94680.66;5076123;28;20126;-68
2022/09/02 03:53:49;;;;;;;18.02;13.48;;;;;;;18.95;100.00;94685.16;5065606;28;20047;-67
2022/09/02 03:56:17;;;;;;;20.95;12.90;;;;;;;18.91;100.00;94685.72;5068943;28;20048;-67
2022/09/02 03:58:48;;;;;;;17.48;11.80;;;;;;;18.97;100.00;94693.56;5068745;28;20043;-67
2022/09/02 04:01:21;;;;;;;16.88;11.77;;;;;;;18.93;100.00;94692.59;5070563;28;20113;-67
2022/09/02 04:03:50;;;;;;;15.50;11.50;;;;;;;18.95;100.00;94690.44;5080121;28;20437;-66
2022/09/02 04:06:22;;;;;;;17.08;10.57;;;;;;;18.97;100.00;94690.94;5071198;28;20525;-67
2022/09/02 04:08:53;;;;;;;12.57;10.40;;;;;;;19.00;100.00;94693.00;5071635;28;20039;-68
2022/09/02 04:11:22;;;;;;;15.25;9.63;;;;;;;19.05;100.00;94688.44;5070540;28;20071;-67
2022/09/02 04:13:52;;;;;;;14.32;10.20;;;;;;;19.08;100.00;94692.34;5067347;28;20071;-66
2022/09/02 04:16:27;;;;;;;12.50;9.07;;;;;;;19.10;100.00;94692.84;5069114;28;20043;-67
2022/09/02 04:19:00;;;;;;;16.05;10.63;;;;;;;19.09;100.00;94692.06;5063160;28;20068;-68
2022/09/02 04:21:32;;;;;;;12.93;8.90;;;;;;;19.16;100.00;94699.63;5067810;28;20050;-67
2022/09/02 04:23:59;;;;;;;11.45;9.13;;;;;;;19.18;100.00;94701.97;5088404;28;20037;-67
2022/09/02 04:26:28;;;;;;;13.05;9.18;;;;;;;19.20;100.00;94702.47;5052662;28;20050;-67
2022/09/02 04:28:56;;;;;;;15.75;9.50;;;;;;;19.19;100.00;94701.66;5075158;28;20440;-67
2022/09/02 04:31:31;;;;;;;13.95;9.52;;;;;;;19.21;100.00;94704.03;5078634;28;20128;-65
2022/09/02 04:33:59;;;;;;;14.20;10.30;;;;;;;19.26;100.00;94712.66;5091416;28;20036;-66
2022/09/02 04:36:28;;;;;;;12.80;9.18;;;;;;;19.23;100.00;94718.53;5078437;28;20043;-66
2022/09/02 04:38:59;;;;;;;12.30;9.60;;;;;;;19.26;100.00;94722.44;5079121;28;20042;-66
2022/09/02 04:41:29;;;;;;;15.90;10.40;;;;;;;19.27;100.00;94719.50;5085814;28;21160;-66
2022/09/02 04:44:01;;;;;;;15.38;9.55;;;;;;;19.26;100.00;94728.47;5077215;28;20039;-66
2022/09/02 04:46:32;;;;;;;13.15;10.13;;;;;;;19.24;100.00;94735.91;5078072;28;20879;-65
2022/09/02 04:49:03;;;;;;;12.88;10.30;;;;;;;19.19;100.00;94743.91;5081956;28;20127;-67
2022/09/02 04:51:31;;;;;;;13.73;9.95;;;;;;;19.11;100.00;94741.94;5077883;28;20108;-66
2022/09/02 04:54:00;;;;;;;14.18;11.00;;;;;;;18.93;100.00;94735.59;5076208;28;20123;-66
2022/09/02 04:56:31;;;;;;;17.15;12.27;;;;;;;18.87;100.00;94742.78;5078970;28;20551;-65
2022/09/02 04:59:00;;;;;;;15.07;10.95;;;;;;;18.84;100.00;94743.34;5076050;28;20052;-67
2022/09/02 05:01:31;;;;;;;16.33;12.00;;;;;;;18.73;100.00;94736.63;5071112;28;20130;-66
2022/09/02 05:04:06;;;;;;;22.35;11.52;;;;;;;18.71;100.00;94738.75;5074142;28;20051;-67
2022/09/02 05:06:36;;;;;;;16.42;11.93;;;;;;;18.75;100.00;94742.41;5092079;28;20052;-66
2022/09/02 05:09:13;;;;;;;20.55;13.90;;;;;;;18.78;100.00;94749.75;5073695;28;20040;-67
2022/09/02 05:11:40;;;;;;;20.55;12.93;;;;;;;18.74;100.00;94748.72;5067816;28;20140;-67
2022/09/02 05:14:08;;;;;;;16.35;12.40;;;;;;;18.70;100.00;94753.00;5051249;28;20055;-68
2022/09/02 05:16:39;;;;;;;17.50;12.57;;;;;;;18.72;100.00;94745.59;5068215;28;20040;-68
2022/09/02 05:19:12;;;;;;;28.33;13.27;;;;;;;18.75;100.00;94739.75;5071179;28;20062;-67
2022/09/02 05:21:48;;;;;;;22.85;12.18;;;;;;;18.81;100.00;94733.38;5069177;28;20050;-68
2022/09/02 05:24:25;;;;;;;17.45;12.93;;;;;;;18.80;100.00;94737.06;5069335;28;20573;-67
2022/09/02 05:26:54;;;;;;;18.90;11.88;;;;;;;18.82;100.00;94734.94;5078553;28;20059;-69
2022/09/02 05:29:23;;;;;;;19.00;11.30;;;;;;;18.85;100.00;94733.56;5063107;28;20047;-69
2022/09/02 05:31:51;;;;;;;16.13;11.32;;;;;;;18.86;100.00;94730.66;5064698;28;20056;-68
2022/09/02 05:34:21;;;;;;;16.75;11.55;;;;;;;18.82;100.00;94737.59;5069064;28;20385;-68
2022/09/02 05:36:50;;;;;;;18.70;10.73;;;;;;;18.80;100.00;94733.63;5062141;28;20075;-69
2022/09/02 05:39:18;;;;;;;18.98;10.82;;;;;;;18.89;100.00;94745.94;5054036;28;20744;-68
2022/09/02 05:41:46;;;;;;;18.92;12.68;;;;;;;18.98;100.00;94747.91;5070435;28;20473;-68
2022/09/02 05:44:13;;;;;;;20.58;13.90;;;;;;;18.99;100.00;94741.56;5076309;28;20035;-68
2022/09/02 05:46:40;;;;;;;18.70;13.60;;;;;;;18.98;100.00;94747.91;5072789;28;20039;-67
2022/09/02 05:49:16;;;;;;;19.45;13.48;;;;;;;19.01;100.00;94755.25;5071290;28;20100;-67
2022/09/02 05:51:54;;;;;;;22.65;14.00;;;;;;;18.99;100.00;94744.22;5068769;28;20533;-70
2022/09/02 05:54:33;;;;;;;22.70;14.80;;;;;;;19.03;100.00;94739.91;5069383;28;20793;-71
2022/09/02 05:57:08;;;;;;;22.92;14.65;;;;;;;19.09;100.00;94749.34;5079240;28;20066;-67
2022/09/02 05:59:40;;;;;;;;;;;;;;;19.13;100.00;94752.22;5069958;28;20788;-69
2022/09/02 06:02:12;;;;;;;23.17;14.73;;;;;;;19.17;100.00;94761.88;5060370;28;19920;-68
2022/09/02 06:04:43;;;;;;;22.17;15.15;;;;;;;19.17;100.00;94746.06;5054337;28;20044;-68
2022/09/02 06:07:12;;;;;;;27.15;15.23;;;;;;;19.15;100.00;94753.47;5072700;28;20379;-68
2022/09/02 06:09:43;;;;;;;25.17;15.55;;;;;;;19.27;100.00;94751.19;5066021;28;20532;-68
2022/09/02 06:12:12;;;;;;;23.58;14.60;;;;;;;19.36;100.00;94748.69;5064758;28;20048;-69
2022/09/02 06:14:40;;;;;;;20.98;14.25;;;;;;;19.41;100.00;94755.72;5065514;28;20043;-68
2022/09/02 06:17:09;;;;;;;24.65;13.57;;;;;;;19.31;100.00;94734.78;5068870;28;20036;-69
2022/09/02 06:19:46;;;;;;;21.25;13.07;;;;;;;19.46;100.00;94748.53;5078172;28;20130;-67
2022/09/02 06:22:20;;;;;;;23.98;14.25;;;;;;;19.46;100.00;94753.00;5069982;28;20036;-68
2022/09/02 06:24:47;;;;;;;25.15;14.93;;;;;;;19.52;100.00;94761.63;5079751;28;20044;-68
2022/09/02 06:27:20;;;;;;;20.33;14.45;;;;;;;19.45;100.00;94756.75;5075739;28;20101;-69
2022/09/02 06:29:50;;;;;;;23.38;15.00;;;;;;;19.57;100.00;94754.44;5060553;28;20747;-68
2022/09/02 06:32:20;;;;;;;23.90;13.52;;;;;;;19.59;100.00;94762.03;5064672;28;20085;-68
2022/09/02 06:34:49;;;;;;;17.90;11.57;;;;;;;19.66;100.00;94757.97;5059640;28;20062;-68
2022/09/02 06:37:16;;;;;;;18.60;12.77;;;;;;;19.64;100.00;94760.13;5062406;28;20127;-70
2022/09/02 06:39:45;;;;;;;16.67;11.13;;;;;;;19.73;100.00;94768.19;5051496;28;20040;-69
2022/09/02 06:42:18;;;;;;;18.02;11.93;;;;;;;19.75;100.00;94759.97;5060417;28;20041;-68
2022/09/02 06:45:17;;;;;;;16.42;11.20;;;;;;;19.64;100.00;94757.50;5040910;28;20826;-70
2022/09/02 06:47:45;;;;;;;17.00;11.48;;;;;;;19.79;100.00;94761.75;5057669;28;20131;-70
2022/09/02 06:50:13;;;;;;;17.75;11.38;;;;;;;19.81;100.00;94764.09;5062467;28;20547;-69
2022/09/02 06:52:40;;;;;;;18.92;12.60;;;;;;;19.83;100.00;94746.88;5063874;28;20728;-70
2022/09/02 06:55:09;;;;;;;14.10;11.73;;;;;;;19.95;100.00;94759.63;5064762;28;20044;-70
2022/09/02 06:57:38;;;;;;;16.70;11.35;;;;;;;19.98;100.00;94748.47;5060656;28;20070;-69
2022/09/02 07:00:10;;;;;;;19.15;12.30;;;;;;;20.03;100.00;94761.59;5063340;28;20040;-69
2022/09/02 07:02:37;;;;;;;15.52;12.50;;;;;;;20.16;100.00;94764.53;5068452;28;20036;-69
2022/09/02 07:05:14;;;;;;;18.35;11.95;;;;;;;20.20;100.00;94754.94;5053810;28;20071;-69
2022/09/02 07:07:44;;;;;;;15.73;11.02;;;;;;;20.25;100.00;94757.50;5068643;28;20060;-69
2022/09/02 07:10:14;;;;;;;16.95;12.75;;;;;;;20.50;100.00;94771.31;5074598;28;20129;-69
2022/09/02 07:12:46;;;;;;;19.65;11.68;;;;;;;20.58;100.00;94770.59;5069005;28;20051;-69
2022/09/02 07:15:15;;;;;;;18.48;12.45;;;;;;;20.58;100.00;94775.91;5070800;28;20754;-69
2022/09/02 07:17:43;;;;;;;17.65;12.32;;;;;;;20.67;100.00;94778.66;5086999;28;20031;-69
2022/09/02 07:20:16;;;;;;;16.48;11.55;;;;;;;20.64;100.00;94774.75;5073776;28;20056;-68
2022/09/02 07:22:51;;;;;;;14.17;10.20;;;;;;;20.69;100.00;94777.31;5074476;28;20536;-68
2022/09/02 07:25:19;;;;;;;17.15;10.00;;;;;;;20.38;100.00;94783.19;5073952;28;20064;-68
2022/09/02 07:27:50;;;;;;;13.30;9.68;;;;;;;20.29;100.00;94779.63;5057523;28;20055;-68
2022/09/02 07:30:18;;;;;;;16.77;11.15;;;;;;;20.43;100.00;94784.91;5079441;28;20694;-70
2022/09/02 07:32:50;;;;;;;19.55;10.45;;;;;;;20.43;100.00;94780.41;5077085;28;20044;-69
2022/09/02 07:35:21;;;;;;;16.83;10.13;;;;;;;20.36;100.00;94785.31;5076614;28;20672;-71
2022/09/02 07:37:49;;;;;;;13.68;10.15;;;;;;;20.44;100.00;94787.28;5056832;28;20051;-68
2022/09/02 07:40:18;;;;;;;16.33;10.27;;;;;;;20.50;100.00;94789.81;5077641;28;20036;-69
2022/09/02 07:42:46;;;;;;;14.27;9.77;;;;;;;20.56;100.00;94788.63;5061733;28;20623;-70
2022/09/02 07:45:13;;;;;;;12.75;9.63;;;;;;;20.58;100.00;94791.78;5059531;28;20048;-70
2022/09/02 07:47:43;;;;;;;15.18;9.25;;;;;;;20.64;100.00;94795.16;5071725;28;20090;-68
2022/09/02 07:50:12;;;;;;;9.98;8.18;;;;;;;20.64;100.00;94801.22;5079854;28;20031;-69
2022/09/02 07:52:50;;;;;;;14.02;8.60;;;;;;;20.72;100.00;94803.16;5073880;28;20076;-68
2022/09/02 07:55:17;;;;;;;11.23;8.48;;;;;;;20.79;100.00;94798.25;5070446;28;20397;-68
2022/09/02 07:57:45;;;;;;;14.65;9.10;;;;;;;20.83;100.00;94795.03;5087107;28;20052;-69
2022/09/02 08:00:15;;;;;;;11.98;8.98;;;;;;;21.02;100.00;94795.69;5064872;28;20794;-69
2022/09/02 08:02:46;;;;;;;10.27;7.85;;;;;;;21.10;100.00;94792.31;5068539;28;20071;-69
2022/09/02 08:05:20;;;;;;;15.45;8.30;;;;;;;20.79;100.00;94808.84;5069777;28;20047;-69
2022/09/02 08:07:47;;;;;;;10.55;8.23;;;;;;;20.84;100.00;94799.25;5088927;28;20055;-68
2022/09/02 08:10:15;;;;;;;12.10;8.75;;;;;;;21.02;100.00;94808.13;5069104;28;20044;-69
2022/09/02 08:12:43;;;;;;;10.05;7.90;;;;;;;21.08;100.00;94810.38;5089505;28;20538;-70
2022/09/02 08:15:11;;;;;;;11.30;8.23;;;;;;;21.09;100.00;94806.66;5052218;28;20639;-69
2022/09/02 08:17:39;;;;;;;12.15;8.00;;;;;;;21.25;100.00;94803.66;5067316;28;20047;-70
2022/09/02 08:20:08;;;;;;;13.10;8.05;;;;;;;21.49;100.00;94820.09;5072484;28;20032;-69
2022/09/02 08:22:38;;;;;;;10.25;7.05;;;;;;;21.56;100.00;94815.16;5088255;28;20051;-70
2022/09/02 08:25:06;;;;;;;10.02;8.32;;;;;;;21.74;100.00;94812.63;5069131;28;20028;-69
2022/09/02 08:27:34;;;;;;;11.57;7.55;;;;;;;21.81;100.00;94805.03;5087380;28;20043;-69
2022/09/02 08:30:10;;;;;;;12.43;6.40;;;;;;;21.96;100.00;94811.84;5090913;28;20043;-68
2022/09/02 08:32:38;;;;;;;9.18;7.82;;;;;;;22.08;100.00;94813.94;5071472;28;20325;-68
2022/09/02 08:35:07;;;;;;;10.18;7.20;;;;;;;22.20;100.00;94811.50;5087172;28;20330;-69
2022/09/02 08:37:36;;;;;;;12.20;8.05;;;;;;;22.35;100.00;94801.63;5088336;28;20055;-69
2022/09/02 08:40:07;;;;;;;9.77;7.40;;;;;;;22.52;100.00;94809.63;5087865;28;20058;-69
2022/09/02 08:42:54;;;;;;;20.05;11.90;;;;;;;22.68;100.00;94804.69;5067518;28;20046;-69
2022/09/02 08:45:29;;;;;;;18.38;11.52;;;;;;;22.80;100.00;94812.84;5081022;28;20051;-69
2022/09/02 08:48:20;;;;;;;9.60;7.57;;;;;;;22.92;100.00;94806.91;5088038;28;20413;-69
2022/09/02 08:50:51;;;;;;;9.20;8.07;;;;;;;22.99;100.00;94809.91;5088063;28;20112;-69
2022/09/02 08:53:31;;;;;;;12.27;8.55;;;;;;;23.03;100.00;94808.22;5068635;28;20043;-68
2022/09/02 08:56:00;;;;;;;20.85;12.05;;;;;;;23.14;100.00;94810.56;5073493;28;20040;-67
2022/09/02 08:58:37;;;;;;;17.27;8.82;;;;;;;23.36;100.00;94813.09;5073753;28;20081;-69
2022/09/02 09:01:25;;;;;;;10.35;8.80;;;;;;;23.48;100.00;94810.59;5089987;28;20040;-69
2022/09/02 09:04:22;;;;;;;14.27;9.80;;;;;;;23.66;100.00;94805.28;5089088;28;20044;-69
2022/09/02 09:06:55;;;;;;;11.32;7.47;;;;;;;23.22;100.00;94804.50;5091365;28;20044;-69
2022/09/02 09:09:40;;;;;;;11.57;8.85;;;;;;;22.84;100.00;94802.38;5094197;28;20478;-69
2022/09/02 09:12:16;;;;;;;9.43;8.07;;;;;;;23.05;100.00;94792.78;5096978;28;20342;-69
2022/09/02 09:14:47;;;;;;;9.13;7.95;;;;;;;23.45;100.00;94784.66;5086658;28;20055;-70
2022/09/02 09:18:01;;;;;;;12.30;9.15;;;;;;;23.72;100.00;94796.03;5081167;28;20052;-67
2022/09/02 09:20:36;;;;;;;12.85;7.85;;;;;;;24.07;100.00;94801.31;5056644;28;20462;-69
2022/09/02 09:23:33;;;;;;;11.57;9.55;;;;;;;24.05;100.00;94796.31;5062679;28;20987;-69
2022/09/02 09:26:19;;;;;;;13.05;9.18;;;;;;;23.79;100.00;94793.69;5061019;28;20054;-69
2022/09/02 09:28:49;;;;;;;11.32;8.88;;;;;;;23.91;100.00;94794.94;5063185;28;20044;-68
2022/09/02 09:31:18;;;;;;;14.98;9.25;;;;;;;23.97;100.00;94799.00;5063166;28;20036;-70
2022/09/02 09:34:03;;;;;;;11.88;9.65;;;;;;;23.97;100.00;94794.47;5079413;28;20570;-67
2022/09/02 09:36:50;;;;;;;11.73;9.63;;;;;;;24.17;100.00;94785.03;5083243;28;20048;-66
2022/09/02 09:39:31;;;;;;;16.25;11.10;;;;;;;24.12;100.00;94781.75;5064779;28;20047;-66
2022/09/02 09:42:08;;;;;;;13.73;9.85;;;;;;;24.04;100.00;94780.69;5080658;28;20040;-67
2022/09/02 09:44:37;;;;;;;14.00;10.25;;;;;;;24.09;100.00;94790.38;5084068;28;20545;-68
2022/09/02 09:47:10;;;;;;;13.52;10.75;;;;;;;24.10;100.00;94787.38;5077441;28;20040;-71
2022/09/02 09:49:43;;;;;;;14.75;11.38;;;;;;;23.99;100.00;94780.84;5084472;28;20137;-69
2022/09/02 09:52:10;;;;;;;15.32;10.70;;;;;;;23.91;100.00;94792.28;5080391;28;20050;-67
2022/09/02 09:54:37;;;;;;;13.70;11.45;;;;;;;23.87;100.00;94794.03;5084079;28;20054;-68
2022/09/02 09:57:18;;;;;;;14.32;10.65;;;;;;;23.75;100.00;94771.50;5073593;28;20044;-68
2022/09/02 09:59:54;;;;;;;15.02;11.27;;;;;;;23.74;100.00;94796.50;5083105;28;20160;-67
2022/09/02 10:02:25;;;;;;;14.32;11.88;;;;;;;23.76;100.00;94798.84;5084399;28;20036;-67
2022/09/02 10:05:08;;;;;;;14.02;11.90;;;;;;;23.87;100.00;94794.78;5080845;28;20071;-66
2022/09/02 10:07:41;;;;;;;16.05;11.85;;;;;;;24.08;100.00;94800.22;5076252;28;20048;-66
2022/09/02 10:10:20;;;;;;;17.50;11.77;;;;;;;24.19;100.00;94800.66;5075093;28;20139;-67
2022/09/02 10:12:50;;;;;;;19.25;12.38;;;;;;;24.20;99.81;94803.03;5079552;28;20080;-66
2022/09/02 10:15:28;;;;;;;18.02;12.40;;;;;;;24.33;100.00;94800.47;5078626;28;20056;-65
2022/09/02 10:18:25;;;;;;;17.98;12.73;;;;;;;24.35;99.98;94799.03;5076306;28;20131;-67
2022/09/02 10:21:20;;;;;;;15.20;11.93;;;;;;;24.33;99.80;94781.84;5094886;28;20040;-75
2022/09/02 10:23:58;;;;;;;18.13;12.07;;;;;;;24.60;99.43;94789.41;5076947;28;20135;-73
2022/09/02 10:26:40;;;;;;;17.60;11.50;;;;;;;24.81;100.00;94778.00;5090669;28;20040;-73
2022/09/02 10:29:28;;;;;;;17.73;12.63;;;;;;;25.10;97.20;94790.53;5080151;28;20036;-74
2022/09/02 10:32:08;;;;;;;16.95;12.98;;;;;;;24.89;95.60;94789.75;5098571;28;20060;-73
2022/09/02 10:34:57;;;;;;;16.80;12.40;;;;;;;24.98;98.43;94788.56;5080692;28;20067;-68
2022/09/02 10:37:40;;;;;;;18.65;13.43;;;;;;;25.21;97.61;94779.47;5078887;28;20052;-85
2022/09/02 10:40:15;;;;;;;16.13;12.20;;;;;;;25.22;96.54;94787.16;5067896;28;20051;-85
2022/09/02 10:43:04;;;;;;;18.77;14.00;;;;;;;25.07;95.90;94790.41;5068810;28;20039;-86
2022/09/02 10:45:45;;;;;;;16.67;13.05;;;;;;;25.09;96.79;94783.66;5053179;28;20047;-81
2022/09/02 10:48:53;;;;;;;21.50;13.82;;;;;;;25.29;97.36;94798.09;5081542;28;20131;-84
2022/09/02 10:51:39;;;;;;;23.52;14.30;;;;;;;25.55;94.97;94794.44;5013228;28;20709;-83
2022/09/02 10:54:44;;;;;;;17.13;12.63;;;;;;;25.55;93.90;94789.09;5069433;28;20134;-68
2022/09/02 10:57:18;;;;;;;21.13;13.50;;;;;;;25.36;93.69;94785.03;5067774;28;20046;-67
2022/09/02 10:59:54;;;;;;;22.33;14.93;;;;;;;25.34;94.86;94783.81;5067541;28;20119;-67
2022/09/02 11:02:29;;;;;;;18.17;13.20;;;;;;;25.45;92.71;94768.19;5067179;28;20123;-67
2022/09/02 11:05:04;;;;;;;24.48;14.82;;;;;;;25.65;93.37;94783.38;5082375;28;20535;-68
2022/09/02 11:07:51;;;;;;;17.08;13.27;;;;;;;26.16;94.45;94791.22;5081740;28;20087;-67
2022/09/02 11:10:26;;;;;;;19.25;14.18;;;;;;;26.50;91.45;94790.03;5063350;28;20032;-68
2022/09/02 11:13:04;;;;;;;16.67;13.52;;;;;;;26.81;83.39;94783.41;5079253;28;20517;-67
2022/09/02 11:15:51;;;;;;;19.17;13.85;;;;;;;27.15;79.07;94786.66;5082232;28;20077;-67
2022/09/02 11:18:31;;;;;;;18.13;13.63;;;;;;;27.33;80.10;94783.75;5077545;28;20048;-67
2022/09/02 11:21:45;;;;;;;21.08;15.13;;;;;;;27.58;77.86;94782.53;5076192;28;20063;-67
2022/09/02 11:24:42;;;;;;;18.58;14.27;;;;;;;27.92;73.08;94785.00;5028328;28;20122;-67
2022/09/02 11:27:35;;;;;;;24.05;15.77;;;;;;;28.35;73.16;94780.72;5080104;28;20711;-67
2022/09/02 11:30:17;;;;;;;22.25;15.18;;;;;;;28.41;70.46;94782.00;5081418;28;20044;-67
2022/09/02 11:32:51;;;;;;;18.52;15.40;;;;;;;28.24;70.29;94777.78;5079494;28;20036;-67
2022/09/02 11:35:26;;;;;;;17.52;14.05;;;;;;;27.79;72.06;94778.91;5079651;28;20044;-68
2022/09/02 11:38:01;;;;;;;23.30;15.38;;;;;;;28.10;72.54;94769.41;5056041;28;20052;-67